Westchester County Airport
KHPN : rendu visible

Aérodrome :











RETROUVEZ-NOUS SUR...

 
LOGIN :

S'inscrire | Disclaimer

   EN    FR    IT 

 









Légende :    VFR   VFR Marginal   IFR   IFR Intensif   IFR Très Intensif
Visi : 
Plafond : 
>= 8 km
>= 3000ft
5 à 8 km
1000 à 3000 ft
1500m à 5 km
500 à 1000 ft
800 à 1500m
200 à 500 ft
< 800m
< 200 ft
Symboles :   Orages  Brouillard  Fortes neiges  Fortes précipitations  Vent > 20 kt







- Altitude de l'aérodrome : 439 ft
- Code IATA : HPN


KHPN - Westchester County

DERNIER METAR :
  • 240456Z 28007G15KT 6SM BR FEW041 SCT070 SCT090 19/18 A2979 RMK AO2 LTG DSNT E RAE03 SLP085 P0003 T01940183 402110128

METARs EXPIRÉS :
  • 240356Z 25010G17KT 3SM -RA BR FEW050 BKN080 OVC100 20/18 A2980 RMK AO2 SLP087 P0006 T02000183
  • 240256Z VRB04KT 8SM -RA FEW110 18/17 A2982 RMK AO2 RAB25 SLP096 P0000 60000 T01780167 56020

TAF KHPN
Valide du 24 à 02h jusqu'au 25 à 00h UTC


240203Z 2402/2424 19006KT P6SM SCT100 BKN250
TEMPO 2402/2404 -SHRA BKN035
FM240400 24007KT P6SM SCT050 BKN100
FM240600 29012G18KT P6SM SCT040 SCT250
FM241400 31015G24KT P6SM FEW040 SCT250
FM241700 31019G27KT P6SM SCT040
FM242200 32016G24KT P6SM FEW040 SCT250 AMD NOT SKED
FIR KZBW / Amérique du Nord



MET'MAP, la Météo Aéronautique d'un coup d'oeil ! - Copyright ORBIFLY Décembre 2007 - Disclaimer

ORBIFLY MET'MAP TEAM :

Programmation & Développement : Alexandra Zaïnal
Conception & Développement : Baudouin d'Aumeries
Co-Programmation & Développement : Marc-Olivier Méhu
Soutien technique & logistique : Manuel Goepfert

Contact : metmap@orbifly.com




SOURCES & CREDITS :

   NOAA       Earth
Advisory